Aviation Digital Data Service (ADDS)

Output produced by METARs form (0241 UTC 22 July 2017)
found at http://www.aviationweather.gov/adds/metars/
 
LKCV 220200Z 07004KT CAVOK 16/14 Q1013 RMK BLACK
LKCV 220200Z 07004KT CAVOK 16/14 Q1013 RMK BLACK
LKKB 220200Z 07010KT 020V090 CAVOK 17/15 Q1013
TAF LKKB 212300Z 2200/2300 08006KT CAVOK 
     TEMPO 2206/2218 SHRA BKN040 
     PROB40 
     TEMPO 2210/2218 6000 SHRA BKN030CB
       
LKKV 220200Z 10003KT 060V130 CAVOK 16/12 Q1014
TAF LKKV 212300Z 2200/2306 VRB02KT CAVOK 
     TEMPO 2203/2220 25013KT 9999 -SHRA SCT030TCU 
     PROB40 
     TEMPO 2203/2220 33020G30KT 3000 TSRA BKN015CB 
     BECMG 2220/2222 VRB02KT CAVOK
       
LKLN 220200Z AUTO 33003KT 300V360 CAVOK 17/13 Q1013
LKMT 220230Z 22003KT 0400 R22/0400 R04/0600U BCFG VV001 15/15 Q1015 TEMPO 0800 BCFG BKN002
TAF LKMT 212300Z 2200/2306 VRB02KT CAVOK 
     TEMPO 2203/2205 3000 BR NSC 
     PROB30 
     TEMPO 2203/2204 0600 FG NSC 
     TEMPO 2210/2218 22015KT 9999 -SHRA SCT040TCU 
     PROB30 
     TEMPO 2212/2218 33020G30KT 4000 TSRA BKN030CB 
     BECMG 2218/2220 VRB02KT CAVOK
       
LKNA 220200Z 08006KT CAVOK 19/13 Q1014 RMK BLU
TAF LKNA 212300Z 2200/2300 06004KT CAVOK 
     BECMG 2205/2207 12008KT 
     TEMPO 2209/2215 BKN040 
     PROB40 
     TEMPO 2212/2218 6000 SHRA SCT030TCU
       
LKPD 220200Z 06003KT 040V140 CAVOK 17/15 Q1013 RMK BLU
TAF LKPD 212300Z 2200/2300 VRB02KT CAVOK 
     BECMG 2206/2208 12006KT SCT035 
     TEMPO 2208/2218 10012KT 6000 SHRA SCT020TCU SCT040 
     BECMG 2213/2215 CAVOK 
     BECMG 2216/2218 VRB02KT
       
LKPR 220230Z 07003KT 030V100 CAVOK 18/14 Q1013 NOSIG
TAF LKPR 212300Z 2200/2306 09007KT CAVOK 
     BECMG 2205/2208 9999 SCT040 
     TEMPO 2208/2216 25015KT 9999 -SHRA BKN040TCU 
     PROB40 
     TEMPO 2209/2216 33020G30KT 4000 TSRA BKN030CB 
     BECMG 2216/2218 VRB02KT CAVOK
       
LKTB 220230Z 08005KT CAVOK 19/16 Q1014 NOSIG
TAF LKTB 212300Z 2200/2306 VRB02KT CAVOK 
     TEMPO 2206/2221 16013KT 9999 -SHRA SCT040TCU 
     PROB40 
     TEMPO 2209/2218 33020G30KT 5000 TSRA BKN033CB 
     BECMG 2221/2223 05005KT CAVOK
       
LKKV 220200Z 10003KT 060V130 CAVOK 16/12 Q1014
TAF LKKV 212300Z 2200/2306 VRB02KT CAVOK 
     TEMPO 2203/2220 25013KT 9999 -SHRA SCT030TCU 
     PROB40 
     TEMPO 2203/2220 33020G30KT 3000 TSRA BKN015CB 
     BECMG 2220/2222 VRB02KT CAVOK
       
LKKB 220200Z 07010KT 020V090 CAVOK 17/15 Q1013
TAF LKKB 212300Z 2200/2300 08006KT CAVOK 
     TEMPO 2206/2218 SHRA BKN040 
     PROB40 
     TEMPO 2210/2218 6000 SHRA BKN030CB
       
LKLN 220200Z AUTO 33003KT 300V360 CAVOK 17/13 Q1013
LKMT 220230Z 22003KT 0400 R22/0400 R04/0600U BCFG VV001 15/15 Q1015 TEMPO 0800 BCFG BKN002
TAF LKMT 212300Z 2200/2306 VRB02KT CAVOK 
     TEMPO 2203/2205 3000 BR NSC 
     PROB30 
     TEMPO 2203/2204 0600 FG NSC 
     TEMPO 2210/2218 22015KT 9999 -SHRA SCT040TCU 
     PROB30 
     TEMPO 2212/2218 33020G30KT 4000 TSRA BKN030CB 
     BECMG 2218/2220 VRB02KT CAVOK
       
LKNA 220200Z 08006KT CAVOK 19/13 Q1014 RMK BLU
TAF LKNA 212300Z 2200/2300 06004KT CAVOK 
     BECMG 2205/2207 12008KT 
     TEMPO 2209/2215 BKN040 
     PROB40 
     TEMPO 2212/2218 6000 SHRA SCT030TCU
       
LKPD 220200Z 06003KT 040V140 CAVOK 17/15 Q1013 RMK BLU
TAF LKPD 212300Z 2200/2300 VRB02KT CAVOK 
     BECMG 2206/2208 12006KT SCT035 
     TEMPO 2208/2218 10012KT 6000 SHRA SCT020TCU SCT040 
     BECMG 2213/2215 CAVOK 
     BECMG 2216/2218 VRB02KT
       
LKPR 220230Z 07003KT 030V100 CAVOK 18/14 Q1013 NOSIG
TAF LKPR 212300Z 2200/2306 09007KT CAVOK 
     BECMG 2205/2208 9999 SCT040 
     TEMPO 2208/2216 25015KT 9999 -SHRA BKN040TCU 
     PROB40 
     TEMPO 2209/2216 33020G30KT 4000 TSRA BKN030CB 
     BECMG 2216/2218 VRB02KT CAVOK
       
LKTB 220230Z 08005KT CAVOK 19/16 Q1014 NOSIG
TAF LKTB 212300Z 2200/2306 VRB02KT CAVOK 
     TEMPO 2206/2221 16013KT 9999 -SHRA SCT040TCU 
     PROB40 
     TEMPO 2209/2218 33020G30KT 5000 TSRA BKN033CB 
     BECMG 2221/2223 05005KT CAVOK